createdAt,value
2023-01-05T00:01:43.730Z,98475.59
2023-01-05T00:04:10.720Z,98474.63
2023-01-05T00:06:37.922Z,98473.97
2023-01-05T00:09:05.922Z,98466.22
2023-01-05T00:11:59.524Z,98467.53
2023-01-05T00:14:48.187Z,98470.63
2023-01-05T00:17:36.806Z,98475.44
2023-01-05T00:20:25.922Z,98469.91
2023-01-05T00:22:54.293Z,98477.59
2023-01-05T00:25:22.518Z,98512.28
2023-01-05T00:27:51.930Z,98509.41
2023-01-05T00:30:37.747Z,98491.31
2023-01-05T00:33:04.606Z,98480.16
2023-01-05T00:35:31.479Z,98470.78
2023-01-05T00:37:58.388Z,98440.03
2023-01-05T00:40:25.266Z,98430.41
2023-01-05T00:42:52.166Z,98445.31
2023-01-05T00:45:19.619Z,98429.41
2023-01-05T00:47:48.827Z,98436.66
2023-01-05T00:50:17.277Z,98422.59
2023-01-05T00:52:44.666Z,98417.38
2023-01-05T00:55:11.637Z,98405.72
2023-01-05T00:57:39.088Z,98417.78
2023-01-05T01:00:11.391Z,98407.63
2023-01-05T01:02:38.258Z,98378.84
2023-01-05T01:05:05.331Z,98359.53
2023-01-05T01:07:32.232Z,98348.22
2023-01-05T01:09:59.122Z,98357.84
2023-01-05T01:12:25.975Z,98362.72
2023-01-05T01:14:52.625Z,98380.25
2023-01-05T01:17:19.526Z,98384.22
2023-01-05T01:19:47.415Z,98392.22
2023-01-05T01:22:14.902Z,98413.91
2023-01-05T01:24:41.916Z,98400.84
2023-01-05T01:27:08.773Z,98404.88
2023-01-05T01:29:35.723Z,98398.94
2023-01-05T01:32:02.642Z,98399.53
2023-01-05T01:34:29.650Z,98376.13
2023-01-05T01:36:56.917Z,98372.09
2023-01-05T01:39:23.906Z,98382.16
2023-01-05T01:42:04.937Z,98367.59
2023-01-05T01:44:51.420Z,98391.75
2023-01-05T01:47:28.667Z,98404.56
2023-01-05T01:49:56.178Z,98423.59
2023-01-05T01:52:24.415Z,98400.09
2023-01-05T01:54:52.067Z,98388.38
2023-01-05T01:57:19.237Z,98385.41
2023-01-05T01:59:46.268Z,98373.31
2023-01-05T02:02:13.633Z,98359.00
2023-01-05T02:04:40.953Z,98363.31
2023-01-05T02:07:08.984Z,98350.50
2023-01-05T02:09:35.880Z,98335.22
2023-01-05T02:12:53.147Z,98323.06
2023-01-05T02:15:36.323Z,98320.34
2023-01-05T02:18:31.707Z,98321.69
2023-01-05T02:21:16.754Z,98299.50
2023-01-05T02:24:13.296Z,98291.16
2023-01-05T02:27:03.369Z,98324.78
2023-01-05T02:29:40.282Z,98307.25
2023-01-05T02:32:07.073Z,98305.31
2023-01-05T02:34:36.471Z,98304.19
2023-01-05T02:37:15.470Z,98288.91
2023-01-05T02:39:57.961Z,98283.22
2023-01-05T02:42:26.458Z,98275.88
2023-01-05T02:44:53.335Z,98258.41
2023-01-05T02:47:26.176Z,98253.53
2023-01-05T02:49:57.810Z,98251.19
2023-01-05T02:52:25.558Z,98243.22
2023-01-05T02:54:59.022Z,98250.13
2023-01-05T02:57:50.412Z,98235.56
2023-01-05T03:00:29.682Z,98239.94
2023-01-05T03:03:02.279Z,98223.41
2023-01-05T03:05:33.704Z,98227.88
2023-01-05T03:08:11.245Z,98237.88
2023-01-05T03:11:12.714Z,98238.78
2023-01-05T03:13:41.951Z,98233.91
2023-01-05T03:16:11.026Z,98237.09
2023-01-05T03:18:57.078Z,98231.59
2023-01-05T03:21:27.645Z,98221.81
2023-01-05T03:24:15.415Z,98216.38
2023-01-05T03:27:01.538Z,98207.78
2023-01-05T03:29:47.072Z,98218.88
2023-01-05T03:32:41.331Z,98218.47
2023-01-05T03:35:34.753Z,98211.09
2023-01-05T03:38:25.949Z,98205.44
2023-01-05T03:40:54.456Z,98213.44
2023-01-05T03:43:21.812Z,98198.66
2023-01-05T03:45:55.339Z,98185.00
2023-01-05T03:48:23.416Z,98176.69
2023-01-05T03:50:50.380Z,98173.22
2023-01-05T03:53:17.398Z,98180.81
2023-01-05T03:55:44.273Z,98171.78
2023-01-05T03:58:10.900Z,98177.66
2023-01-05T04:00:39.748Z,98180.53
2023-01-05T04:03:06.819Z,98180.56
2023-01-05T04:05:33.764Z,98171.31
2023-01-05T04:08:00.483Z,98167.16
2023-01-05T04:10:28.389Z,98178.09
2023-01-05T04:12:55.300Z,98184.53
2023-01-05T04:15:22.129Z,98190.56
2023-01-05T04:17:48.798Z,98187.00
2023-01-05T04:20:17.925Z,98188.47
2023-01-05T04:22:44.785Z,98188.00
2023-01-05T04:25:11.468Z,98191.06
2023-01-05T04:27:38.324Z,98196.03
2023-01-05T04:30:05.977Z,98200.00
2023-01-05T04:32:32.907Z,98208.47
2023-01-05T04:35:03.860Z,98204.44
2023-01-05T04:37:40.089Z,98218.25
2023-01-05T04:40:09.375Z,98230.03
2023-01-05T04:42:36.198Z,98228.22
2023-01-05T04:45:02.860Z,98200.31
2023-01-05T04:47:29.712Z,98202.91
2023-01-05T04:50:07.037Z,98215.78
2023-01-05T04:52:33.902Z,98210.50
2023-01-05T04:55:00.797Z,98207.06
2023-01-05T04:57:27.826Z,98212.63
2023-01-05T04:59:57.778Z,98210.34
2023-01-05T05:02:24.763Z,98207.22
2023-01-05T05:04:51.748Z,98204.38
2023-01-05T05:07:18.750Z,98198.16
2023-01-05T05:09:52.579Z,98203.34
2023-01-05T05:12:20.777Z,98214.50
2023-01-05T05:14:48.336Z,98203.28
2023-01-05T05:17:16.683Z,98212.88
2023-01-05T05:19:43.842Z,98217.16
2023-01-05T05:22:11.405Z,98234.16
2023-01-05T05:24:38.280Z,98223.28
2023-01-05T05:27:05.117Z,98220.56
2023-01-05T05:29:31.967Z,98217.50
2023-01-05T05:31:58.800Z,98219.28
2023-01-05T05:34:25.640Z,98217.97
2023-01-05T05:36:52.528Z,98212.63
2023-01-05T05:39:19.510Z,98210.44
2023-01-05T05:41:49.629Z,98211.66
2023-01-05T05:44:16.475Z,98206.66
2023-01-05T05:46:43.452Z,98199.34
2023-01-05T05:49:10.557Z,98197.75
2023-01-05T05:51:37.469Z,98197.69
2023-01-05T05:54:04.503Z,98195.44
2023-01-05T05:56:31.400Z,98186.50
2023-01-05T05:59:01.631Z,98175.94
2023-01-05T06:01:29.396Z,98172.50
2023-01-05T06:03:56.452Z,98176.25
2023-01-05T06:06:23.315Z,98166.81
2023-01-05T06:08:51.189Z,98155.38
2023-01-05T06:11:19.070Z,98149.50
2023-01-05T06:13:46.133Z,98155.13
2023-01-05T06:16:13.005Z,98139.94
2023-01-05T06:18:39.870Z,98142.56
2023-01-05T06:21:06.895Z,98130.09
2023-01-05T06:23:33.764Z,98127.38
2023-01-05T06:26:00.447Z,98127.63
2023-01-05T06:28:27.343Z,98126.56
2023-01-05T06:30:55.210Z,98115.97
2023-01-05T06:33:22.084Z,98106.31
2023-01-05T06:35:48.956Z,98109.31
2023-01-05T06:38:16.698Z,98113.13
2023-01-05T06:40:44.807Z,98093.63
2023-01-05T06:43:12.436Z,98084.28
2023-01-05T06:45:39.309Z,98092.38
2023-01-05T06:48:06.327Z,98085.19
2023-01-05T06:50:36.313Z,98084.09
2023-01-05T06:53:03.328Z,98089.97
2023-01-05T06:55:30.483Z,98094.50
2023-01-05T06:58:00.951Z,98096.72
2023-01-05T07:00:29.026Z,98106.56
2023-01-05T07:02:55.967Z,98105.25
2023-01-05T07:05:24.757Z,98100.16
2023-01-05T07:07:51.878Z,98099.75
2023-01-05T07:10:18.952Z,98099.19
2023-01-05T07:12:45.858Z,98095.66
2023-01-05T07:15:12.830Z,98093.91
2023-01-05T07:17:39.730Z,98104.38
2023-01-05T07:20:08.097Z,98093.38
2023-01-05T07:22:35.159Z,98098.38
2023-01-05T07:25:02.121Z,98097.72
2023-01-05T07:27:28.975Z,98104.06
2023-01-05T07:29:55.711Z,98105.31
2023-01-05T07:32:22.572Z,98119.03
2023-01-05T07:34:55.240Z,98125.28
2023-01-05T07:37:24.990Z,98118.37
2023-01-05T07:39:52.453Z,98112.09
2023-01-05T07:42:19.476Z,98101.84
2023-01-05T07:44:46.299Z,98091.78
2023-01-05T07:47:12.940Z,98100.94
2023-01-05T07:49:39.796Z,98110.06
2023-01-05T07:52:06.484Z,98112.16
2023-01-05T07:54:33.350Z,98117.16
2023-01-05T07:57:00.504Z,98124.81
2023-01-05T07:59:27.468Z,98124.47
2023-01-05T08:01:54.410Z,98126.34
2023-01-05T08:04:21.411Z,98105.72
2023-01-05T08:06:48.332Z,98103.56
2023-01-05T08:09:33.488Z,98103.72
2023-01-05T08:12:00.340Z,98103.56
2023-01-05T08:14:27.029Z,98111.00
2023-01-05T08:16:54.029Z,98123.16
2023-01-05T08:19:20.955Z,98102.03
2023-01-05T08:21:47.658Z,98109.47
2023-01-05T08:24:14.538Z,98105.78
2023-01-05T08:26:41.485Z,98102.50
2023-01-05T08:29:08.512Z,98117.72
2023-01-05T08:31:37.762Z,98129.97
2023-01-05T08:34:05.365Z,98131.06
2023-01-05T08:36:33.108Z,98140.44
2023-01-05T08:39:01.801Z,98131.75
2023-01-05T08:41:31.952Z,98120.53
2023-01-05T08:44:04.115Z,98122.66
2023-01-05T08:46:33.517Z,98132.88
2023-01-05T08:49:02.023Z,98138.81
2023-01-05T08:51:29.619Z,98135.03
2023-01-05T08:53:56.582Z,98146.84
2023-01-05T08:56:28.793Z,98181.16
2023-01-05T08:58:59.416Z,98184.72
2023-01-05T09:01:27.025Z,98175.72
2023-01-05T09:03:54.075Z,98165.31
2023-01-05T09:06:20.968Z,98169.13
2023-01-05T09:08:48.772Z,98168.69
2023-01-05T09:11:26.040Z,98155.09
2023-01-05T09:13:59.858Z,98150.53
2023-01-05T09:19:16.691Z,98158.66
2023-01-05T09:21:44.863Z,98142.88
2023-01-05T09:24:15.303Z,98149.28
2023-01-05T09:26:42.844Z,98122.09
2023-01-05T09:29:11.012Z,98124.19
2023-01-05T09:31:40.666Z,98135.06
2023-01-05T09:34:07.586Z,98117.38
2023-01-05T09:36:34.470Z,98108.22
2023-01-05T09:39:01.440Z,98094.03
2023-01-05T09:41:33.453Z,98096.78
2023-01-05T09:44:08.541Z,98112.75
2023-01-05T09:46:39.272Z,98110.72
2023-01-05T09:49:08.009Z,98087.66
2023-01-05T09:51:36.141Z,98081.44
2023-01-05T09:54:03.472Z,98074.31
2023-01-05T09:59:45.837Z,98079.56
2023-01-05T10:02:28.003Z,98093.41
2023-01-05T10:04:55.857Z,98087.47
2023-01-05T10:07:25.622Z,98078.03
2023-01-05T10:09:53.904Z,98076.22
2023-01-05T10:13:06.420Z,98078.19
2023-01-05T10:15:42.812Z,98081.91
2023-01-05T10:18:12.287Z,98074.28
2023-01-05T10:21:02.563Z,98075.03
2023-01-05T10:23:40.103Z,98069.88
2023-01-05T10:26:25.483Z,98057.63
2023-01-05T10:29:00.539Z,98045.38
2023-01-05T10:31:48.936Z,98037.97
2023-01-05T10:34:54.965Z,98025.06
2023-01-05T10:37:35.403Z,98020.47
2023-01-05T10:40:05.025Z,98027.63
2023-01-05T10:42:46.562Z,98014.47
2023-01-05T10:45:18.469Z,98011.37
2023-01-05T10:47:46.435Z,98000.34
2023-01-05T10:50:36.363Z,97987.47
2023-01-05T10:53:24.643Z,97989.81
2023-01-05T10:55:57.617Z,97995.09
2023-01-05T10:58:29.935Z,98006.03
2023-01-05T11:01:03.991Z,98014.63
2023-01-05T11:04:14.943Z,98016.38
2023-01-05T11:06:25.812Z,98024.59
2023-01-05T11:08:52.813Z,98007.53
2023-01-05T11:11:25.352Z,98007.72
2023-01-05T11:13:59.093Z,98012.03
2023-01-05T11:16:34.317Z,98013.19
2023-01-05T11:19:04.364Z,98013.63
2023-01-05T11:21:38.009Z,98013.34
2023-01-05T11:24:05.628Z,98021.59
2023-01-05T11:26:39.413Z,98019.03
2023-01-05T11:29:09.234Z,98015.94
2023-01-05T11:31:58.843Z,98026.50
2023-01-05T11:34:48.085Z,98014.09
2023-01-05T11:37:27.807Z,98014.25
2023-01-05T11:40:00.166Z,98000.66
2023-01-05T11:42:27.013Z,98000.75
2023-01-05T11:45:22.487Z,98005.75
2023-01-05T11:48:05.618Z,97996.78
2023-01-05T11:50:42.553Z,97984.84
2023-01-05T11:53:22.138Z,97987.03
2023-01-05T11:56:01.026Z,97979.75
2023-01-05T11:58:33.626Z,97993.38
2023-01-05T12:01:42.361Z,98021.69
2023-01-05T12:04:25.103Z,98042.41
2023-01-05T12:06:55.348Z,98052.38
2023-01-05T12:09:39.709Z,98058.84
2023-01-05T12:12:15.652Z,98111.41
2023-01-05T12:15:04.795Z,98126.47
2023-01-05T12:18:08.458Z,98104.66
2023-01-05T12:20:54.455Z,98109.59
2023-01-05T12:23:30.285Z,98118.59
2023-01-05T12:26:45.127Z,98124.44
2023-01-05T12:34:01.432Z,98126.13
2023-01-05T12:36:24.381Z,98118.97
2023-01-05T12:39:01.717Z,98106.53
2023-01-05T12:41:46.415Z,98133.69
2023-01-05T12:44:32.089Z,98143.72
2023-01-05T12:47:30.036Z,98150.47
2023-01-05T12:50:21.373Z,98137.59
2023-01-05T12:53:14.020Z,98120.75
2023-01-05T12:55:45.702Z,98131.66
2023-01-05T12:58:22.828Z,98129.94
2023-01-05T13:00:59.232Z,98119.09
2023-01-05T13:03:32.247Z,98144.78
2023-01-05T13:06:08.810Z,98150.09
2023-01-05T13:08:43.133Z,98132.56
2023-01-05T13:11:26.900Z,98124.97
2023-01-05T13:14:06.533Z,98110.03
2023-01-05T13:16:39.688Z,98106.03
2023-01-05T13:19:13.033Z,98100.31
2023-01-05T13:21:42.754Z,98098.62
2023-01-05T13:24:13.589Z,98099.06
2023-01-05T13:26:40.831Z,98101.63
2023-01-05T13:29:25.004Z,98106.97
2023-01-05T13:32:06.280Z,98097.53
2023-01-05T13:34:38.915Z,98105.22
2023-01-05T13:37:24.522Z,98113.13
2023-01-05T13:39:51.339Z,98111.69
2023-01-05T13:42:33.579Z,98108.53
2023-01-05T13:45:37.999Z,98125.37
2023-01-05T13:48:13.087Z,98150.44
2023-01-05T13:51:06.642Z,98154.25
2023-01-05T13:53:37.925Z,98121.28
2023-01-05T13:56:17.083Z,98125.84
2023-01-05T13:59:03.136Z,98118.78
2023-01-05T14:01:43.445Z,98130.44
2023-01-05T14:04:22.497Z,98140.38
2023-01-05T14:06:52.474Z,98153.59
2023-01-05T14:09:46.155Z,98161.94
2023-01-05T14:12:15.954Z,98188.81
2023-01-05T14:15:06.155Z,98204.63
2023-01-05T14:17:55.660Z,98203.16
2023-01-05T14:20:49.182Z,98195.78
2023-01-05T14:23:31.967Z,98201.16
2023-01-05T14:26:00.914Z,98193.41
2023-01-05T14:28:30.863Z,98165.47
2023-01-05T14:31:37.227Z,98169.63
2023-01-05T14:34:10.291Z,98164.44
2023-01-05T14:36:39.441Z,98159.38
2023-01-05T14:39:28.903Z,98152.94
2023-01-05T14:42:00.212Z,98167.16
2023-01-05T14:44:44.328Z,98165.91
2023-01-05T14:47:11.918Z,98170.34
2023-01-05T14:49:55.969Z,98167.66
2023-01-05T14:52:55.133Z,98178.22
2023-01-05T14:56:03.517Z,98192.19
2023-01-05T14:58:36.312Z,98185.66
2023-01-05T15:01:17.247Z,98209.59
2023-01-05T15:03:57.886Z,98185.47
2023-01-05T15:06:39.204Z,98191.31
2023-01-05T15:09:23.071Z,98184.59
2023-01-05T15:12:40.131Z,98199.38
2023-01-05T15:15:31.413Z,98210.44
2023-01-05T15:18:08.505Z,98212.66
2023-01-05T15:20:51.284Z,98208.78
2023-01-05T15:26:37.065Z,98212.47
2023-01-05T15:29:31.876Z,98207.59
2023-01-05T15:31:58.695Z,98218.22
2023-01-05T15:34:37.816Z,98218.75
2023-01-05T15:37:31.130Z,98217.31
2023-01-05T15:40:07.681Z,98220.41
2023-01-05T15:42:46.405Z,98222.50
2023-01-05T15:45:23.744Z,98212.56
2023-01-05T15:47:50.391Z,98220.31
2023-01-05T15:50:40.814Z,98226.59
2023-01-05T15:53:33.435Z,98219.78
2023-01-05T15:56:00.881Z,98225.22
2023-01-05T15:58:30.366Z,98225.94
2023-01-05T16:01:11.111Z,98225.13
2023-01-05T16:03:39.799Z,98219.78
2023-01-05T16:06:16.986Z,98223.91
2023-01-05T16:08:46.543Z,98223.13
2023-01-05T16:11:17.884Z,98227.06
2023-01-05T16:13:52.548Z,98230.94
2023-01-05T16:16:50.132Z,98227.38
2023-01-05T16:19:24.954Z,98242.75
2023-01-05T16:22:05.520Z,98245.88
2023-01-05T16:24:43.616Z,98234.78
2023-01-05T16:27:13.647Z,98239.50
2023-01-05T16:29:45.882Z,98240.66
2023-01-05T16:32:54.910Z,98250.06
2023-01-05T16:35:22.456Z,98241.00
2023-01-05T16:38:11.181Z,98252.94
2023-01-05T16:40:46.982Z,98253.28
2023-01-05T16:44:16.998Z,98259.84
2023-01-05T16:46:49.323Z,98265.41
2023-01-05T16:49:22.298Z,98263.50
2023-01-05T16:51:49.245Z,98283.56
2023-01-05T16:54:38.389Z,98280.78
2023-01-05T16:57:35.939Z,98284.41
2023-01-05T17:00:04.454Z,98282.75
2023-01-05T17:02:35.658Z,98281.34
2023-01-05T17:05:02.571Z,98286.50
2023-01-05T17:07:29.449Z,98286.06
2023-01-05T17:09:56.388Z,98288.81
2023-01-05T17:12:23.395Z,98297.09
2023-01-05T17:14:50.665Z,98293.31
2023-01-05T17:19:54.212Z,98296.53
2023-01-05T17:22:21.457Z,98291.09
2023-01-05T17:24:48.570Z,98290.72
2023-01-05T17:27:15.481Z,98281.22
2023-01-05T17:29:42.685Z,98278.19
2023-01-05T17:32:11.603Z,98284.47
2023-01-05T17:34:39.640Z,98284.16
2023-01-05T17:37:07.526Z,98278.44
2023-01-05T17:39:34.443Z,98291.16
2023-01-05T17:42:22.745Z,98302.72
2023-01-05T17:44:52.084Z,98314.09
2023-01-05T17:47:19.120Z,98325.63
2023-01-05T17:49:46.070Z,98327.38
2023-01-05T17:52:14.009Z,98329.66
2023-01-05T17:54:41.940Z,98335.03
2023-01-05T17:57:12.357Z,98338.09
2023-01-05T17:59:39.269Z,98330.34
2023-01-05T18:02:06.172Z,98340.25
2023-01-05T18:04:33.291Z,98339.91
2023-01-05T18:07:01.140Z,98335.97
2023-01-05T18:09:28.055Z,98335.50
2023-01-05T18:11:55.070Z,98338.91
2023-01-05T18:14:21.937Z,98329.19
2023-01-05T18:16:48.770Z,98335.25
2023-01-05T18:19:15.843Z,98336.25
2023-01-05T18:24:10.461Z,98350.44
2023-01-05T18:26:37.414Z,98341.34
2023-01-05T18:29:04.390Z,98348.09
2023-01-05T18:31:31.221Z,98351.66
2023-01-05T18:33:58.067Z,98337.50
2023-01-05T18:36:24.979Z,98338.41
2023-01-05T18:38:51.868Z,98335.47
2023-01-05T18:41:24.220Z,98341.00
2023-01-05T18:43:51.086Z,98339.81
2023-01-05T18:46:18.082Z,98336.72
2023-01-05T18:48:49.461Z,98344.69
2023-01-05T18:51:16.427Z,98340.34
2023-01-05T18:53:43.470Z,98334.88
2023-01-05T18:56:13.003Z,98340.53
2023-01-05T18:58:39.859Z,98349.72
2023-01-05T19:01:12.137Z,98336.66
2023-01-05T19:03:39.386Z,98349.66
2023-01-05T19:06:08.536Z,98365.03
2023-01-05T19:08:35.774Z,98359.50
2023-01-05T19:11:13.787Z,98357.41
2023-01-05T19:13:41.092Z,98365.31
2023-01-05T19:16:08.809Z,98359.94
2023-01-05T19:18:35.736Z,98356.03
2023-01-05T19:21:02.689Z,98369.37
2023-01-05T19:23:30.070Z,98373.75
2023-01-05T19:26:04.482Z,98368.59
2023-01-05T19:28:32.154Z,98366.38
2023-01-05T19:31:15.361Z,98378.84
2023-01-05T19:33:42.623Z,98370.94
2023-01-05T19:36:16.662Z,98371.63
2023-01-05T19:38:44.863Z,98369.22
2023-01-05T19:41:18.211Z,98352.13
2023-01-05T19:43:48.434Z,98366.50
2023-01-05T19:46:16.935Z,98348.66
2023-01-05T19:48:44.779Z,98352.50
2023-01-05T19:51:15.153Z,98365.97
2023-01-05T19:53:43.075Z,98355.09
2023-01-05T19:56:14.585Z,98362.37
2023-01-05T19:58:42.774Z,98354.50
2023-01-05T20:01:14.207Z,98365.69
2023-01-05T20:03:43.675Z,98365.50
2023-01-05T20:06:16.533Z,98361.56
2023-01-05T20:08:43.430Z,98378.81
2023-01-05T20:11:14.252Z,98380.97
2023-01-05T20:13:41.380Z,98376.91
2023-01-05T20:16:10.507Z,98382.63
2023-01-05T20:18:38.454Z,98387.06
2023-01-05T20:21:07.044Z,98390.63
2023-01-05T20:23:39.011Z,98393.63
2023-01-05T20:26:11.450Z,98386.69
2023-01-05T20:28:38.964Z,98404.22
2023-01-05T20:31:14.249Z,98402.63
2023-01-05T20:33:41.129Z,98414.00
2023-01-05T20:36:08.033Z,98411.41
2023-01-05T20:38:34.899Z,98418.00
2023-01-05T20:41:01.813Z,98415.34
2023-01-05T20:43:28.677Z,98418.16
2023-01-05T20:45:55.523Z,98417.44
2023-01-05T20:48:22.388Z,98416.25
2023-01-05T20:50:49.229Z,98418.69
2023-01-05T20:53:15.932Z,98411.06
2023-01-05T20:55:46.644Z,98421.38
2023-01-05T20:58:13.486Z,98419.22
2023-01-05T21:01:09.616Z,98421.91
2023-01-05T21:03:28.196Z,98431.16
2023-01-05T21:05:55.212Z,98430.78
2023-01-05T21:08:22.090Z,98417.38
2023-01-05T21:10:54.229Z,98427.62
2023-01-05T21:13:31.598Z,98425.06
2023-01-05T21:16:04.982Z,98429.63
2023-01-05T21:18:33.611Z,98428.66
2023-01-05T21:21:00.670Z,98429.31
2023-01-05T21:23:27.504Z,98442.94
2023-01-05T21:26:06.549Z,98429.31
2023-01-05T21:28:36.243Z,98433.09
2023-01-05T21:31:05.397Z,98442.03
2023-01-05T21:33:32.746Z,98449.09
2023-01-05T21:36:00.002Z,98436.34
2023-01-05T21:38:26.919Z,98442.38
2023-01-05T21:41:14.357Z,98435.44
2023-01-05T21:43:41.282Z,98439.28
2023-01-05T21:46:10.365Z,98450.56
2023-01-05T21:48:37.272Z,98454.44
2023-01-05T21:51:23.538Z,98452.91
2023-01-05T21:54:09.031Z,98448.84
2023-01-05T21:56:40.050Z,98461.56
2023-01-05T21:59:10.429Z,98463.50
2023-01-05T22:01:38.793Z,98458.69
2023-01-05T22:04:05.907Z,98453.75
2023-01-05T22:06:33.363Z,98458.72
2023-01-05T22:09:00.296Z,98466.41
2023-01-05T22:11:27.175Z,98464.34
2023-01-05T22:13:54.023Z,98462.47
2023-01-05T22:16:20.927Z,98469.25
2023-01-05T22:18:48.027Z,98469.25
2023-01-05T22:21:15.190Z,98459.16
2023-01-05T22:23:42.040Z,98471.44
2023-01-05T22:26:11.406Z,98487.59
2023-01-05T22:28:41.273Z,98482.34
2023-01-05T22:31:12.420Z,98484.09
2023-01-05T22:33:46.486Z,98494.81
2023-01-05T22:36:14.438Z,98500.78
2023-01-05T22:38:43.087Z,98493.53
2023-01-05T22:41:12.218Z,98510.62
2023-01-05T22:43:40.998Z,98515.13
2023-01-05T22:46:12.272Z,98523.44
2023-01-05T22:48:41.293Z,98521.81
2023-01-05T22:51:13.585Z,98523.28
2023-01-05T22:53:41.181Z,98516.91
2023-01-05T22:56:09.657Z,98520.59
2023-01-05T22:58:36.928Z,98521.41
2023-01-05T23:01:36.993Z,98508.88
2023-01-05T23:04:05.592Z,98518.47
2023-01-05T23:06:32.832Z,98524.13
2023-01-05T23:08:59.885Z,98528.25
2023-01-05T23:11:32.507Z,98512.94
2023-01-05T23:14:01.395Z,98517.41
2023-01-05T23:16:28.744Z,98526.56
2023-01-05T23:18:56.021Z,98538.66
2023-01-05T23:21:24.307Z,98531.97
2023-01-05T23:23:52.245Z,98530.31
2023-01-05T23:26:19.461Z,98550.69
2023-01-05T23:28:46.634Z,98534.00
2023-01-05T23:31:14.828Z,98525.81
2023-01-05T23:33:42.559Z,98533.00
2023-01-05T23:36:10.500Z,98524.94
2023-01-05T23:38:37.883Z,98531.66
2023-01-05T23:41:08.348Z,98530.16
2023-01-05T23:43:37.923Z,98535.38
2023-01-05T23:46:08.183Z,98532.72
2023-01-05T23:48:36.207Z,98536.13
2023-01-05T23:51:04.671Z,98542.12
2023-01-05T23:53:31.745Z,98549.34
2023-01-05T23:56:06.946Z,98544.63
2023-01-05T23:58:33.929Z,98530.75
